Time;durP1;ratioP1;P1;durP2;ratioP2;P2;SDS_P1;SDS_P2;PMS_P1;PMS_P2;Temp;Humidity;BMP_temperature;BMP_pressure;BME280_temperature;BME280_humidity;BME280_pressure;Samples;Min_cycle;Max_cycle;Signal;HPM_P1;HPM_P2
2023/07/08 00:01:39;;;;;;;;;;;;;;;25.21;100.00;100200.56;5112448;28;19941;-69
2023/07/08 00:04:04;;;;;;;;;;;;;;;25.12;100.00;100199.53;5112727;28;19934;-69
2023/07/08 00:06:30;;;;;;;;;;;;;;;25.14;100.00;100192.44;5112351;28;19915;-69
2023/07/08 00:11:58;;;;;;;;;;;;;;;25.11;100.00;100202.28;5112240;28;19914;-69
2023/07/08 00:14:23;;;;;;;;;;;;;;;25.25;100.00;100199.34;5093285;28;19911;-69
2023/07/08 00:16:49;;;;;;;;;;;;;;;25.31;100.00;100204.03;5111959;28;19999;-69
2023/07/08 00:19:18;;;;;;;;;;;;;;;25.15;100.00;100198.47;5093849;28;19911;-69
2023/07/08 00:21:44;;;;;;;;;;;;;;;25.18;100.00;100186.00;5115085;28;19911;-69
2023/07/08 00:24:09;;;;;;;;;;;;;;;25.13;100.00;100180.38;5097381;28;19916;-68
2023/07/08 00:26:34;;;;;;;;;;;;;;;25.23;100.00;100177.81;5116034;28;20353;-69
2023/07/08 00:29:00;;;;;;;;;;;;;;;25.12;100.00;100173.50;5097474;28;19912;-69
2023/07/08 00:31:25;;;;;;;;;;;;;;;24.84;100.00;100168.97;5096650;28;19912;-69
2023/07/08 00:33:51;;;;;;;;;;;;;;;24.90;100.00;100168.47;5097150;28;19912;-69
2023/07/08 00:36:17;;;;;;;;;;;;;;;24.85;100.00;100155.03;5116858;28;20354;-69
2023/07/08 00:38:45;;;;;;;;;;;;;;;24.81;100.00;100154.47;5116403;28;19919;-69
2023/07/08 00:44:13;;;;;;;;;;;;;;;24.85;100.00;100155.88;5115600;28;19919;-68
2023/07/08 00:46:49;;;;;;;;;;;;;;;24.77;100.00;100168.69;5096430;28;20305;-69
2023/07/08 00:49:35;;;;;;;;;;;;;;;24.84;100.00;100171.59;5115641;28;20461;-68
2023/07/08 00:52:19;;;;;;;;;;;;;;;24.92;100.00;100174.38;5115227;28;20002;-68
2023/07/08 00:54:44;;;;;;;;;;;;;;;24.91;100.00;100176.16;5096663;28;19912;-68
2023/07/08 01:00:18;;;;;;;;;;;;;;;24.94;100.00;100188.06;5115834;28;19926;-67
2023/07/08 01:05:46;;;;;;;;;;;;;;;24.86;100.00;100196.53;5115168;28;19914;-68
2023/07/08 01:08:12;;;;;;;;;;;;;;;24.82;100.00;100200.34;5115143;28;19968;-68
2023/07/08 01:10:42;;;;;;;;;;;;;;;24.81;100.00;100205.69;5096653;28;20317;-68
2023/07/08 01:13:09;;;;;;;;;;;;;;;24.92;100.00;100205.59;5114979;28;19969;-67
2023/07/08 01:18:39;;;;;;;;;;;;;;;24.87;100.00;100210.38;5112840;28;20023;-68
2023/07/08 01:24:09;;;;;;;;;;;;;;;24.85;100.00;100196.66;5114786;28;20316;-67
2023/07/08 01:26:37;;;;;;;;;;;;;;;24.84;100.00;100206.25;5114124;28;19908;-67
2023/07/08 01:29:03;;;;;;;;;;;;;;;24.86;100.00;100193.09;5115706;28;19912;-67
2023/07/08 01:31:28;;;;;;;;;;;;;;;24.87;100.00;100216.41;5115408;28;19915;-68
2023/07/08 01:36:59;;;;;;;;;;;;;;;24.94;100.00;100238.34;5114500;28;19919;-67
2023/07/08 01:42:27;;;;;;;;;;;;;;;24.72;100.00;100227.22;5114527;28;19919;-68
2023/07/08 01:44:52;;;;;;;;;;;;;;;24.83;100.00;100225.41;5114413;28;19916;-68
2023/07/08 01:47:19;;;;;;;;;;;;;;;24.71;100.00;100222.97;5114420;28;20014;-68
2023/07/08 01:49:45;;;;;;;;;;;;;;;24.72;100.00;100202.06;5114476;28;19911;-68
2023/07/08 01:52:11;;;;;;;;;;;;;;;24.94;100.00;100211.50;5113782;28;19919;-69
2023/07/08 01:57:39;;;;;;;;;;;;;;;24.50;100.00;100172.72;5114134;28;20411;-68
2023/07/08 02:00:05;;;;;;;;;;;;;;;24.50;100.00;100163.13;5113568;28;19912;-68
2023/07/08 02:02:30;;;;;;;;;;;;;;;24.71;100.00;100153.56;5113475;28;19911;-69
2023/07/08 02:04:55;;;;;;;;;;;;;;;24.57;100.00;100166.06;5114507;28;19923;-69
2023/07/08 02:07:21;;;;;;;;;;;;;;;24.62;100.00;100163.91;5113536;28;19915;-68
2023/07/08 02:12:49;;;;;;;;;;;;;;;24.87;100.00;100192.16;5113811;28;20289;-69
2023/07/08 02:18:18;;;;;;;;;;;;;;;24.35;100.00;100166.16;5113438;28;20328;-69
2023/07/08 02:20:44;;;;;;;;;;;;;;;24.38;100.00;100173.72;5113760;28;19916;-69
2023/07/08 02:23:09;;;;;;;;;;;;;;;24.27;100.00;100158.16;5113007;28;19930;-69
2023/07/08 02:28:37;;;;;;;;;;;;;;;24.33;100.00;100175.88;5113809;28;19990;-67
2023/07/08 02:34:05;;;;;;;;;;;;;;;24.47;100.00;100180.75;5113445;28;19933;-69
2023/07/08 02:36:30;;;;;;;;;;;;;;;24.13;100.00;100176.69;5113062;28;20006;-67
2023/07/08 02:38:55;;;;;;;;;;;;;;;24.48;100.00;100190.22;5112970;28;19912;-69
2023/07/08 02:44:24;;;;;;;;;;;;;;;24.23;100.00;100208.75;5112709;28;19950;-67
2023/07/08 02:49:52;;;;;;;;;;;;;;;24.27;100.00;100251.75;5113183;28;20427;-67
2023/07/08 02:52:17;;;;;;;;;;;;;;;24.22;100.00;100254.72;5112600;28;19912;-67
2023/07/08 02:54:42;;;;;;;;;;;;;;;24.15;100.00;100276.94;5113577;28;20285;-67
2023/07/08 02:57:08;;;;;;;;;;;;;;;24.19;100.00;100295.72;5094163;28;19912;-68
2023/07/08 02:59:33;;;;;;;;;;;;;;;24.33;100.00;100298.03;5094462;28;19924;-67
2023/07/08 03:05:27;;;;;;;;;;;;;;;24.44;100.00;100316.25;5112208;28;20038;-68
2023/07/08 03:07:52;;;;;;;;;;;;;;;24.30;100.00;100306.09;5094335;28;20374;-68
2023/07/08 03:10:17;;;;;;;;;;;;;;;24.39;100.00;100306.19;5112632;28;19916;-69
2023/07/08 03:12:43;;;;;;;;;;;;;;;24.13;100.00;100302.22;5094533;28;19930;-68
2023/07/08 03:18:11;;;;;;;;;;;;;;;24.25;100.00;100296.06;5112684;28;20385;-68
2023/07/08 03:20:39;;;;;;;;;;;;;;;24.47;100.00;100306.41;5112331;28;19911;-68
2023/07/08 03:23:04;;;;;;;;;;;;;;;24.39;100.00;100307.97;5094320;28;19981;-69
2023/07/08 03:28:32;;;;;;;;;;;;;;;24.35;100.00;100290.94;5112761;28;20293;-69
2023/07/08 03:34:00;;;;;;;;;;;;;;;24.59;100.00;100287.22;5112765;28;20349;-69
2023/07/08 03:36:25;;;;;;;;;;;;;;;24.56;100.00;100286.66;5112782;28;19912;-70
2023/07/08 03:38:55;;;;;;;;;;;;;;;24.61;100.00;100292.28;5112223;28;19911;-69
2023/07/08 03:41:21;;;;;;;;;;;;;;;24.54;100.00;100286.75;5112718;28;20384;-70
2023/07/08 03:46:51;;;;;;;;;;;;;;;24.51;100.00;100280.97;5112595;28;19914;-70
2023/07/08 03:49:22;;;;;;;;;;;;;;;24.41;100.00;100267.06;5094156;28;19916;-70
2023/07/08 03:51:48;;;;;;;;;;;;;;;24.53;100.00;100263.47;5112836;28;19919;-70
2023/07/08 03:57:16;;;;;;;;;;;;;;;24.47;100.00;100274.38;5116510;28;19914;-70
2023/07/08 03:59:41;;;;;;;;;;;;;;;24.34;100.00;100268.53;5098136;28;19912;-70
2023/07/08 04:05:12;;;;;;;;;;;;;;;24.13;100.00;100249.44;5116378;28;19934;-70
2023/07/08 04:10:40;;;;;;;;;;;;;;;24.31;100.00;100260.94;5116303;28;19931;-70
2023/07/08 04:16:13;;;;;;;;;;;;;;;24.13;100.00;100254.66;5116202;28;19915;-70
2023/07/08 04:18:39;;;;;;;;;;;;;;;24.04;100.00;100241.44;5097638;28;19916;-70
2023/07/08 04:21:04;;;;;;;;;;;;;;;23.94;100.00;100230.09;5115474;28;20325;-69
2023/07/08 04:23:29;;;;;;;;;;;;;;;24.07;100.00;100233.38;5116093;28;19970;-69
2023/07/08 04:28:57;;;;;;;;;;;;;;;23.89;100.00;100240.00;5115956;28;20384;-70
2023/07/08 04:31:22;;;;;;;;;;;;;;;23.81;100.00;100255.34;5097327;28;19916;-70
2023/07/08 04:33:47;;;;;;;;;;;;;;;23.87;100.00;100273.06;5115257;28;19913;-70
2023/07/08 04:36:13;;;;;;;;;;;;;;;23.66;100.00;100298.09;5116111;28;19919;-69
2023/07/08 04:38:41;;;;;;;;;;;;;;;23.86;100.00;100320.78;5115508;28;19912;-69
2023/07/08 04:44:10;;;;;;;;;;;;;;;23.95;100.00;100325.25;5115615;28;20496;-69
2023/07/08 04:49:43;;;;;;;;;;;;;;;23.85;100.00;100332.09;5115823;28;19919;-69
2023/07/08 04:52:08;;;;;;;;;;;;;;;23.85;100.00;100342.50;5096927;28;20281;-70
2023/07/08 04:57:43;;;;;;;;;;;;;;;24.11;100.00;100357.91;5115380;28;19935;-68
2023/07/08 05:00:15;;;;;;;;;;;;;;;24.14;100.00;100376.66;5096351;28;20393;-68
2023/07/08 05:02:41;;;;;;;;;;;;;;;24.28;100.00;100391.19;5115235;28;19911;-68
2023/07/08 05:05:06;;;;;;;;;;;;;;;24.57;100.00;100397.50;5115234;28;19968;-68
2023/07/08 05:10:34;;;;;;;;;;;;;;;24.58;100.00;100405.19;5117959;28;20448;-69
2023/07/08 05:16:02;;;;;;;;;;;;;;;24.33;100.00;100395.06;5115116;28;19957;-69
2023/07/08 05:18:27;;;;;;;;;;;;;;;24.84;100.00;100423.97;5114513;28;19916;-70
2023/07/08 05:20:54;;;;;;;;;;;;;;;25.27;100.00;100445.59;5096760;28;20361;-70
2023/07/08 05:23:20;;;;;;;;;;;;;;;25.91;100.00;100474.19;5114814;28;19916;-70
2023/07/08 05:28:48;;;;;;;;;;;;;;;25.78;100.00;100493.44;5114781;28;19922;-70
2023/07/08 05:34:15;;;;;;;;;;;;;;;25.83;100.00;100492.25;5114937;28;20293;-70
2023/07/08 05:36:41;;;;;;;;;;;;;;;26.01;100.00;100490.72;5095955;28;19912;-69
2023/07/08 05:39:06;;;;;;;;;;;;;;;26.05;100.00;100505.16;5114027;28;19912;-70
2023/07/08 05:41:31;;;;;;;;;;;;;;;25.56;100.00;100490.97;5114713;28;19927;-71
2023/07/08 05:47:00;;;;;;;;;;;;;;;25.60;100.00;100487.16;5114471;28;19957;-70
2023/07/08 05:49:25;;;;;;;;;;;;;;;25.86;100.00;100490.22;5095741;28;19915;-70
2023/07/08 05:51:51;;;;;;;;;;;;;;;26.52;100.00;100517.63;5096028;28;19959;-70
2023/07/08 05:54:16;;;;;;;;;;;;;;;26.20;100.00;100517.75;5096107;28;19912;-70
2023/07/08 05:59:44;;;;;;;;;;;;;;;27.40;100.00;100540.31;5114174;28;20018;-70
2023/07/08 06:05:12;;;;;;;;;;;;;;;26.27;100.00;100524.09;5113870;28;19914;-69
2023/07/08 06:10:44;;;;;;;;;;;;;;;25.88;100.00;100513.53;5113816;28;20001;-70
2023/07/08 06:16:12;;;;;;;;;;;;;;;25.67;100.00;100508.31;5113731;28;19915;-69
2023/07/08 06:21:46;;;;;;;;;;;;;;;25.70;100.00;100511.50;5112017;28;20026;-69
2023/07/08 06:27:14;;;;;;;;;;;;;;;25.39;100.00;100512.31;5113722;28;20012;-68
2023/07/08 06:29:39;;;;;;;;;;;;;;;25.45;100.00;100505.81;5113084;28;19955;-69
2023/07/08 06:32:05;;;;;;;;;;;;;;;25.24;100.00;100507.50;5113387;28;20383;-69
2023/07/08 06:34:30;;;;;;;;;;;;;;;25.20;100.00;100501.72;5114254;28;20268;-68
2023/07/08 06:39:58;;;;;;;;;;;;;;;25.27;100.00;100484.66;5113205;28;20037;-70
2023/07/08 06:42:23;;;;;;;;;;;;;;;25.05;100.00;100482.13;5112603;28;20006;-71
2023/07/08 06:44:52;;;;;;;;;;;;;;;24.91;100.00;100462.41;5113540;28;20263;-70
2023/07/08 06:47:18;;;;;;;;;;;;;;;25.14;100.00;100465.75;5094945;28;19912;-69
2023/07/08 06:52:46;;;;;;;;;;;;;;;25.16;100.00;100452.59;5113370;28;20407;-70
2023/07/08 06:58:20;;;;;;;;;;;;;;;24.76;100.00;100436.78;5090785;28;19950;-72
2023/07/08 07:03:47;;;;;;;;;;;;;;;25.21;100.00;100453.06;5090940;28;19970;-70
2023/07/08 07:06:13;;;;;;;;;;;;;;;24.92;100.00;100448.44;5073347;28;19912;-70
2023/07/08 07:08:38;;;;;;;;;;;;;;;25.29;100.00;100464.53;5073520;28;19912;-70
2023/07/08 07:11:03;;;;;;;;;;;;;;;25.45;100.00;100477.16;5090861;28;20286;-70
2023/07/08 07:13:29;;;;;;;;;;;;;;;25.90;100.00;100499.44;5089879;28;19912;-70
2023/07/08 07:15:54;;;;;;;;;;;;;;;26.21;100.00;100515.94;5090535;28;19912;-70
2023/07/08 07:18:19;;;;;;;;;;;;;;;25.90;100.00;100509.84;5072849;28;20007;-71
2023/07/08 07:20:50;;;;;;;;;;;;;;;25.99;100.00;100501.25;5089768;28;19919;-71
2023/07/08 07:23:15;;;;;;;;;;;;;;;26.42;100.00;100522.78;5071687;28;19971;-71
2023/07/08 07:25:40;;;;;;;;;;;;;;;25.74;100.00;100499.03;5052712;28;19952;-70
2023/07/08 07:28:05;;;;;;;;;;;;;;;26.65;100.00;100528.66;5072099;28;19912;-70
2023/07/08 07:30:31;;;;;;;;;;;;;;;26.50;100.00;100529.97;5074359;28;19913;-70
2023/07/08 07:32:58;;;;;;;;;;;;;;;26.04;100.00;100519.97;5076286;28;19913;-70
2023/07/08 07:35:24;;;;;;;;;;;;;;;25.72;100.00;100517.41;5076596;28;19938;-71
2023/07/08 07:37:49;;;;;;;;;;;;;;;26.18;100.00;100526.66;5076201;28;20297;-70
2023/07/08 07:40:15;;;;;;;;;;;;;;;27.08;100.00;100555.34;5076683;28;19912;-70
2023/07/08 07:45:43;;;;;;;;;;;;;;;27.58;100.00;100569.19;5076456;28;19923;-69
2023/07/08 07:48:08;;;;;;;;;;;;;;;26.97;100.00;100568.50;5057720;28;19913;-70
2023/07/08 07:50:34;;;;;;;;;;;;;;;26.21;100.00;100555.91;5075488;28;20378;-71
2023/07/08 07:52:59;;;;;;;;;;;;;;;25.99;100.00;100544.75;5057595;28;19912;-70
2023/07/08 07:55:24;;;;;;;;;;;;;;;27.15;100.00;100572.16;5075868;28;19913;-70
2023/07/08 07:57:50;;;;;;;;;;;;;;;26.48;100.00;100552.78;5057828;28;20331;-70
2023/07/08 08:00:15;;;;;;;;;;;;;;;26.48;100.00;100557.97;5091168;28;19967;-71
2023/07/08 08:02:41;;;;;;;;;;;;;;;26.30;100.00;100547.31;5075620;28;19912;-70
2023/07/08 08:08:09;;;;;;;;;;;;;;;26.02;100.00;100534.06;5075620;28;20448;-71
2023/07/08 08:10:35;;;;;;;;;;;;;;;26.29;100.00;100544.81;5075505;28;19955;-72
2023/07/08 08:13:00;;;;;;;;;;;;;;;26.65;100.00;100549.53;5075064;28;20294;-70
2023/07/08 08:15:25;;;;;;;;;;;;;;;26.16;100.00;100547.66;5075362;28;19912;-71
2023/07/08 08:20:53;;;;;;;;;;;;;;;25.89;100.00;100541.25;5075434;28;20397;-70
2023/07/08 08:26:21;;;;;;;;;;;;;;;25.79;100.00;100533.34;5095604;28;19915;-71
2023/07/08 08:28:46;;;;;;;;;;;;;;;26.17;100.00;100556.28;5110652;28;19912;-70
2023/07/08 08:31:11;;;;;;;;;;;;;;;26.03;100.00;100551.38;5110681;28;19912;-71
2023/07/08 08:33:37;;;;;;;;;;;;;;;26.55;100.00;100561.72;5095028;28;19968;-71
2023/07/08 08:39:05;;;;;;;;;;;;;;;25.88;100.00;100561.28;5095371;28;19915;-71
2023/07/08 08:41:32;;;;;;;;;;;;;;;25.67;100.00;100569.06;5094085;28;19912;-71
2023/07/08 08:43:58;;;;;;;;;;;;;;;25.88;100.00;100570.88;5095311;28;19941;-71
2023/07/08 08:46:43;;;;;;;;;;;;;;;25.64;100.00;100576.28;5095080;28;19960;-71
2023/07/08 08:49:20;;;;;;;;;;;;;;;26.59;100.00;100597.03;5076909;28;20006;-71
2023/07/08 08:51:46;;;;;;;;;;;;;;;26.05;100.00;100578.94;5095225;28;19919;-71
2023/07/08 08:57:14;;;;;;;;;;;;;;;26.75;100.00;100591.38;5095118;28;19975;-72
2023/07/08 09:02:52;;;;;;;;;;;;;;;27.44;100.00;100601.78;5094900;28;20072;-70
2023/07/08 09:08:27;;;;;;;;;;;;;;;28.66;100.00;100629.00;5094861;28;19915;-70
2023/07/08 09:11:15;;;;;;;;;;;;;;;27.83;100.00;100618.31;5095023;28;19970;-71
2023/07/08 09:13:40;;;;;;;;;;;;;;;27.25;100.00;100609.56;5094608;28;20014;-71
2023/07/08 09:19:14;;;;;;;;;;;;;;;27.22;100.00;100604.59;5094904;28;20337;-70
2023/07/08 09:21:42;;;;;;;;;;;;;;;27.43;100.00;100609.78;5094424;28;19920;-71
2023/07/08 09:27:10;;;;;;;;;;;;;;;27.54;100.00;100616.66;5094449;28;19931;-74
2023/07/08 09:29:35;;;;;;;;;;;;;;;27.61;100.00;100621.22;5093907;28;20326;-71
2023/07/08 09:32:17;;;;;;;;;;;;;;;27.24;100.00;100610.50;5094262;28;19919;-72
2023/07/08 09:34:45;;;;;;;;;;;;;;;27.77;100.00;100618.88;5094430;28;19918;-71
2023/07/08 09:40:18;;;;;;;;;;;;;;;27.74;100.00;100621.75;5094229;28;19919;-72
2023/07/08 09:42:46;;;;;;;;;;;;;;;27.38;100.00;100619.78;5094641;28;19920;-73
2023/07/08 09:45:13;;;;;;;;;;;;;;;27.49;100.00;100608.41;5095800;28;20104;-71
2023/07/08 09:47:40;;;;;;;;;;;;;;;27.05;100.00;100604.41;5096520;28;19908;-72
2023/07/08 09:50:25;;;;;;;;;;;;;;;27.34;100.00;100602.72;5075503;28;19912;-72
2023/07/08 09:52:53;;;;;;;;;;;;;;;28.05;100.00;100599.75;5093471;28;20374;-73
2023/07/08 09:55:18;;;;;;;;;;;;;;;28.38;100.00;100597.66;5093913;28;19916;-73
2023/07/08 09:57:48;;;;;;;;;;;;;;;28.86;100.00;100614.09;5109389;28;19920;-73
2023/07/08 10:03:21;;;;;;;;;;;;;;;27.67;100.00;100594.53;5093742;28;20001;-73
2023/07/08 10:05:47;;;;;;;;;;;;;;;27.79;100.00;100595.22;5075772;28;19912;-72
2023/07/08 10:08:19;;;;;;;;;;;;;;;27.09;100.00;100593.56;5094159;28;19918;-72
2023/07/08 10:13:52;;;;;;;;;;;;;;;27.23;100.00;100585.38;5093522;28;19966;-72
2023/07/08 10:16:28;;;;;;;;;;;;;;;27.61;100.00;100597.69;5093365;28;19912;-73
2023/07/08 10:18:54;;;;;;;;;;;;;;;27.32;100.00;100596.78;5075303;28;19912;-73
2023/07/08 10:21:36;;;;;;;;;;;;;;;26.39;100.00;100574.41;5093174;28;19912;-72
2023/07/08 10:24:04;;;;;;;;;;;;;;;26.46;100.00;100572.94;5093936;28;19919;-72
2023/07/08 10:26:34;;;;;;;;;;;;;;;26.56;100.00;100564.19;5093420;28;19912;-72
2023/07/08 10:29:09;;;;;;;;;;;;;;;26.77;100.00;100573.78;5088490;28;19919;-72
2023/07/08 10:31:38;;;;;;;;;;;;;;;26.48;100.00;100563.19;5093437;28;19912;-73
2023/07/08 10:34:23;;;;;;;;;;;;;;;26.05;100.00;100554.69;5093266;28;20393;-72
2023/07/08 10:36:52;;;;;;;;;;;;;;;25.75;100.00;100542.41;5089655;28;19920;-71
2023/07/08 10:39:33;;;;;;;;;;;;;;;25.36;100.00;100530.78;5075327;28;20346;-71
2023/07/08 10:45:04;;;;;;;;;;;;;;;26.20;100.00;100556.88;5093113;28;20007;-71
2023/07/08 10:47:40;;;;;;;;;;;;;;;26.48;100.00;100563.19;5092802;28;19954;-71
2023/07/08 10:50:15;;;;;;;;;;;;;;;26.45;100.00;100568.66;5074344;28;19912;-70
2023/07/08 10:52:49;;;;;;;;;;;;;;;27.01;100.00;100572.50;5074613;28;19912;-70
2023/07/08 10:55:24;;;;;;;;;;;;;;;28.25;100.00;100596.16;5075065;28;20370;-70
2023/07/08 10:58:10;;;;;;;;;;;;;;;28.68;100.00;100607.94;5092609;28;19919;-70
2023/07/08 11:00:42;;;;;;;;;;;;;;;28.86;100.00;100614.09;5092802;28;19959;-70
2023/07/08 11:03:35;;;;;;;;;;;;;;;29.26;100.00;100614.59;5074261;28;20403;-70
2023/07/08 11:06:00;;;;;;;;;;;;;;;29.71;100.00;100617.19;5092768;28;20005;-71
2023/07/08 11:08:26;;;;;;;;;;;;;;;28.39;100.00;100599.28;5092652;28;20386;-70
2023/07/08 11:10:54;;;;;;;;;;;;;;;28.04;100.00;100589.44;5074511;28;20002;-70
2023/07/08 11:16:29;;;;;;;;;;;;;;;27.92;100.00;100585.28;5092607;28;19931;-71
2023/07/08 11:22:00;;;;;;;;;;;;;;;29.39;100.00;100601.13;5092313;28;20344;-69
2023/07/08 11:27:35;;;;;;;;;;;;;;;28.88;100.00;100586.75;5092549;28;19961;-72
2023/07/08 11:30:17;;;;;;;;;;;;;;;29.20;100.00;100603.88;5092592;28;19912;-75
2023/07/08 11:32:44;;;;;;;;;;;;;;;28.14;100.00;100585.03;5092852;28;19919;-72
2023/07/08 11:35:21;;;;;;;;;;;;;;;27.72;100.00;100584.47;5092949;28;19912;-72
2023/07/08 11:37:46;;;;;;;;;;;;;;;27.79;100.00;100590.00;5092625;28;19916;-72
2023/07/08 11:40:18;;;;;;;;;;;;;;;27.90;100.00;100598.53;5092426;28;19912;-70
2023/07/08 11:42:45;;;;;;;;;;;;;;;27.43;100.00;100591.47;5093111;28;19912;-71
2023/07/08 11:45:30;;;;;;;;;;;;;;;27.23;100.00;100592.38;5091804;28;19951;-71
2023/07/08 11:48:04;;;;;;;;;;;;;;;27.20;100.00;100595.22;5092172;28;19912;-71
2023/07/08 11:53:46;;;;;;;;;;;;;;;26.46;100.00;100575.56;5092589;28;19966;-71
2023/07/08 11:56:11;;;;;;;;;;;;;;;25.89;100.00;100557.69;5092384;28;19912;-70
2023/07/08 11:58:48;;;;;;;;;;;;;;;26.66;100.00;100581.69;5092222;28;20350;-70
2023/07/08 12:04:31;;;;;;;;;;;;;;;26.19;100.00;100581.28;5092402;28;19920;-72
2023/07/08 12:07:02;;;;;;;;;;;;;;;26.46;100.00;100586.78;5092277;28;20301;-72
2023/07/08 12:09:30;;;;;;;;;;;;;;;27.18;100.00;100605.81;5074175;28;20366;-70
2023/07/08 12:12:00;;;;;;;;;;;;;;;27.56;100.00;100606.88;5091984;28;19913;-69
2023/07/08 12:14:28;;;;;;;;;;;;;;;27.98;100.00;100616.16;5073770;28;19912;-70
2023/07/08 12:16:53;;;;;;;;;;;;;;;27.30;100.00;100611.75;5095198;28;20218;-69
2023/07/08 12:22:21;;;;;;;;;;;;;;;27.21;100.00;100602.13;5095037;28;19938;-70
2023/07/08 12:27:49;;;;;;;;;;;;;;;27.27;100.00;100588.53;5096118;28;19977;-69
2023/07/08 12:33:28;;;;;;;;;;;;;;;26.89;100.00;100572.75;5095528;28;19930;-71
2023/07/08 12:35:55;;;;;;;;;;;;;;;26.32;100.00;100566.28;5095643;28;19935;-72
2023/07/08 12:38:32;;;;;;;;;;;;;;;26.83;100.00;100575.88;5095357;28;19969;-73
2023/07/08 12:41:01;;;;;;;;;;;;;;;26.95;100.00;100593.09;5095439;28;19919;-72
2023/07/08 12:43:27;;;;;;;;;;;;;;;27.46;100.00;100601.66;5071893;28;20374;-73
2023/07/08 12:45:52;;;;;;;;;;;;;;;27.24;100.00;100602.66;5111332;28;19912;-72
2023/07/08 12:48:17;;;;;;;;;;;;;;;27.21;100.00;100596.91;5095037;28;19915;-73
2023/07/08 12:50:43;;;;;;;;;;;;;;;27.66;100.00;100608.56;5076549;28;19923;-71
2023/07/08 12:53:12;;;;;;;;;;;;;;;27.88;100.00;100604.84;5095176;28;19948;-71
2023/07/08 12:55:38;;;;;;;;;;;;;;;27.28;100.00;100598.00;5076743;28;20305;-70
2023/07/08 13:01:07;;;;;;;;;;;;;;;27.50;100.00;100594.34;5094972;28;19914;-73
2023/07/08 13:06:35;;;;;;;;;;;;;;;27.99;100.00;100583.81;5095182;28;19986;-71
2023/07/08 13:09:06;;;;;;;;;;;;;;;27.29;100.00;100584.00;5076113;28;20366;-70
2023/07/08 13:11:31;;;;;;;;;;;;;;;27.42;100.00;100582.81;5094281;28;19912;-70
2023/07/08 13:16:59;;;;;;;;;;;;;;;27.78;100.00;100580.47;5094673;28;19914;-69
2023/07/08 13:19:24;;;;;;;;;;;;;;;27.58;100.00;100566.59;5094238;28;20010;-70
2023/07/08 13:21:50;;;;;;;;;;;;;;;27.96;100.00;100577.06;5093761;28;19965;-71
2023/07/08 13:24:17;;;;;;;;;;;;;;;27.56;100.00;100571.13;5094406;28;19912;-71
2023/07/08 13:29:45;;;;;;;;;;;;;;;27.81;100.00;100588.06;5094761;28;19915;-71
2023/07/08 13:32:12;;;;;;;;;;;;;;;27.77;100.00;100579.66;5110113;28;19912;-71
2023/07/08 13:34:39;;;;;;;;;;;;;;;27.96;100.00;100584.09;5107050;28;19912;-71
2023/07/08 13:37:09;;;;;;;;;;;;;;;27.36;100.00;100577.28;5094222;28;19919;-71
2023/07/08 13:39:36;;;;;;;;;;;;;;;28.09;100.00;100582.00;5094050;28;20335;-71
2023/07/08 13:42:02;;;;;;;;;;;;;;;27.84;100.00;100572.09;5075830;28;19920;-71
2023/07/08 13:44:27;;;;;;;;;;;;;;;27.50;100.00;100582.13;5094077;28;19970;-70
2023/07/08 13:46:54;;;;;;;;;;;;;;;28.07;100.00;100590.00;5075627;28;20278;-71
2023/07/08 13:49:39;;;;;;;;;;;;;;;28.04;100.00;100597.31;5093651;28;19931;-70
2023/07/08 13:52:20;;;;;;;;;;;;;;;28.13;100.00;100583.38;5093275;28;19915;-71
2023/07/08 13:57:55;;;;;;;;;;;;;;;27.87;100.00;100579.69;5094133;28;20420;-71
2023/07/08 14:03:24;;;;;;;;;;;;;;;28.26;100.00;100589.16;5093802;28;19980;-69
2023/07/08 14:05:50;;;;;;;;;;;;;;;27.81;100.00;100575.00;5075223;28;19919;-69
2023/07/08 14:08:17;;;;;;;;;;;;;;;28.16;100.00;100577.88;5075447;28;19912;-69
2023/07/08 14:10:43;;;;;;;;;;;;;;;27.91;100.00;100568.78;5093735;28;19912;-71
2023/07/08 14:16:30;;;;;;;;;;;;;;;27.68;100.00;100567.41;5093787;28;20007;-69
2023/07/08 14:19:01;;;;;;;;;;;;;;;27.70;100.00;100570.72;5096308;28;20410;-70
2023/07/08 14:24:36;;;;;;;;;;;;;;;27.36;100.00;100565.06;5093668;28;19975;-70
2023/07/08 14:30:04;;;;;;;;;;;;;;;27.12;100.00;100568.94;5093664;28;19922;-71
2023/07/08 14:32:31;;;;;;;;;;;;;;;26.98;100.00;100557.09;5074749;28;19916;-72
2023/07/08 14:35:08;;;;;;;;;;;;;;;27.09;100.00;100564.00;5093220;28;19912;-71
2023/07/08 14:40:37;;;;;;;;;;;;;;;27.12;100.00;100566.34;5092412;28;20003;-70
2023/07/08 14:46:06;;;;;;;;;;;;;;;27.08;100.00;100570.16;5092966;28;20418;-70
2023/07/08 14:48:32;;;;;;;;;;;;;;;27.25;100.00;100577.38;5074271;28;19912;-72
2023/07/08 14:50:58;;;;;;;;;;;;;;;27.15;100.00;100584.38;5075401;28;20003;-73
2023/07/08 14:53:23;;;;;;;;;;;;;;;26.50;100.00;100582.16;5092745;28;20358;-72
2023/07/08 14:55:53;;;;;;;;;;;;;;;26.76;100.00;100583.41;5108831;28;19951;-73
2023/07/08 14:58:26;;;;;;;;;;;;;;;26.66;100.00;100581.69;5092905;28;19969;-71
2023/07/08 15:00:54;;;;;;;;;;;;;;;26.68;100.00;100580.59;5093407;28;19981;-70
2023/07/08 15:06:22;;;;;;;;;;;;;;;26.93;100.00;100598.47;5093546;28;19965;-74
2023/07/08 15:08:47;;;;;;;;;;;;;;;27.27;100.00;100604.19;5092692;28;20374;-72
2023/07/08 15:11:13;;;;;;;;;;;;;;;27.22;100.00;100612.44;5075289;28;19919;-74
2023/07/08 15:13:38;;;;;;;;;;;;;;;27.28;100.00;100600.59;5074422;28;19919;-73
2023/07/08 15:16:04;;;;;;;;;;;;;;;26.66;100.00;100598.19;5108438;28;20370;-73
2023/07/08 15:18:29;;;;;;;;;;;;;;;26.22;100.00;100588.03;5074553;28;19912;-71
2023/07/08 15:20:55;;;;;;;;;;;;;;;25.96;100.00;100584.94;5074252;28;19974;-73
2023/07/08 15:23:20;;;;;;;;;;;;;;;26.23;100.00;100587.06;5108450;28;20019;-73
2023/07/08 15:25:46;;;;;;;;;;;;;;;26.18;100.00;100586.63;5074094;28;19981;-73
2023/07/08 15:31:20;;;;;;;;;;;;;;;26.07;100.00;100579.69;5092628;28;19998;-70
2023/07/08 15:36:48;;;;;;;;;;;;;;;25.76;100.00;100575.31;5092399;28;19918;-69
2023/07/08 15:42:16;;;;;;;;;;;;;;;26.35;100.00;100589.47;5092292;28;20312;-70
2023/07/08 15:44:41;;;;;;;;;;;;;;;26.51;100.00;100589.84;5073361;28;19915;-70
2023/07/08 15:47:11;;;;;;;;;;;;;;;26.55;100.00;100586.03;5073724;28;19912;-70
2023/07/08 15:49:37;;;;;;;;;;;;;;;26.09;100.00;100580.38;5092481;28;19919;-75
2023/07/08 15:55:05;;;;;;;;;;;;;;;25.87;100.00;100572.63;5096511;28;20016;-70
2023/07/08 16:00:34;;;;;;;;;;;;;;;26.17;100.00;100582.34;5096298;28;19951;-72
2023/07/08 16:03:01;;;;;;;;;;;;;;;26.21;100.00;100581.97;5095400;28;19960;-70
2023/07/08 16:05:27;;;;;;;;;;;;;;;26.35;100.00;100589.47;5096110;28;20267;-70
2023/07/08 16:07:53;;;;;;;;;;;;;;;26.60;100.00;100588.25;5096031;28;20442;-73
2023/07/08 16:13:24;;;;;;;;;;;;;;;26.69;100.00;100597.91;5096796;28;19915;-77
2023/07/08 16:15:50;;;;;;;;;;;;;;;26.44;100.00;100588.69;5096428;28;19962;-74
2023/07/08 16:18:16;;;;;;;;;;;;;;;26.21;100.00;100576.75;5096316;28;19912;-76
2023/07/08 16:20:41;;;;;;;;;;;;;;;26.00;100.00;100583.72;5096310;28;20384;-75
2023/07/08 16:26:11;;;;;;;;;;;;;;;25.86;100.00;100584.03;5095269;28;20331;-76
2023/07/08 16:31:39;;;;;;;;;;;;;;;25.87;100.00;100587.47;5096455;28;20285;-75
2023/07/08 16:34:04;;;;;;;;;;;;;;;25.98;100.00;100590.84;5095675;28;19916;-75
2023/07/08 16:36:29;;;;;;;;;;;;;;;26.42;100.00;100606.25;5095714;28;19919;-75
2023/07/08 16:38:55;;;;;;;;;;;;;;;26.38;100.00;100615.31;5077210;28;19923;-74
2023/07/08 16:44:23;;;;;;;;;;;;;;;25.74;100.00;100604.09;5096160;28;19919;-75
2023/07/08 16:46:48;;;;;;;;;;;;;;;25.82;100.00;100602.63;5095290;28;19979;-75
2023/07/08 16:49:15;;;;;;;;;;;;;;;25.56;100.00;100599.53;5095508;28;19912;-73
2023/07/08 16:51:40;;;;;;;;;;;;;;;25.84;100.00;100605.94;5077458;28;20390;-73
2023/07/08 16:54:14;;;;;;;;;;;;;;;25.31;100.00;100605.00;5076988;28;19982;-73